Fujiiwa Maru — JH3357 — position and weather

sailwx.info

Track history (hours):
 
Tides and Currents Weather Stations Pressure Air Temp Water Temp Dewpoint Dewpoint Depression Visibility Wind Speed Wind Dir Waves Ship Positions

Fujiiwa Maru

Last reported at 2018-May-15 14:11 UTC. Time now 2018-Jul-21 17:14 UTC.
Position N 41°25' E 141°24'.
Warning: this ship's position is months out of date.

Length 84 m; draft 5 m.

Type: Cargo ship. MMSI: 431200122.

Date/timePositionNaut miles runAvg speedWind from/ knotsBaromVisibWave heightAir tempDewpointWater temp
2018-May-15 14:11N 41°25' E 141°24'0 0.0
2018-May-15 13:55N 41°25' E 141°24'0 0.0
2018-May-15 13:29N 41°25' E 141°24'4 6.4
2018-May-15 12:50N 41°28' E 141°29'3 0.1
2018-May-14 10:45N 41°25' E 141°31'23 1.0
2018-May-13 12:43N 41°48' E 141°31'812.4
2018-May-13 12:02N 41°40' E 141°32'112.3
2018-May-13 11:58N 41°39' E 141°32'611.3
2018-May-13 11:28N 41°33' E 141°32'610.7
2018-May-13 10:52N 41°27' E 141°31'46 2.0
2018-May-12 11:55N 40°41' E 141°36'5211.6
2018-May-12 07:28N 41°31' E 141°19'614.0
2018-May-12 07:00N 41°34' E 141°11'714.6
2018-May-12 06:30N 41°37' E 141°02'714.5
2018-May-12 06:00N 41°40' E 140°54'612.7
2018-May-12 05:30N 41°42' E 140°46'510.5
2018-May-12 05:00N 41°46' E 140°41'3 5.2
2018-May-12 04:30N 41°48' E 140°43'0 0.0
2018-May-12 04:00N 41°48' E 140°43'0 0.0
2018-May-12 03:30N 41°48' E 140°43'0 0.0
2018-May-12 03:00N 41°48' E 140°43'0 0.0
2018-May-12 02:30N 41°48' E 140°43'0 0.0
2018-May-12 02:00N 41°48' E 140°43'0 0.0
2018-May-12 01:30N 41°48' E 140°43'0 0.0
2018-May-12 01:00N 41°48' E 140°43'0 0.0
2018-May-12 00:30N 41°48' E 140°43'0 0.0
2018-May-12 00:00N 41°48' E 140°43'0 0.0
2018-May-11 23:30N 41°48' E 140°43'0 0.0
2018-May-11 23:00N 41°48' E 140°43'0 0.0
2018-May-11 22:30N 41°48' E 140°43'0 0.0
2018-May-11 22:00N 41°48' E 140°43'0 0.0
2018-May-11 21:30N 41°48' E 140°43'3 6.0
2018-May-11 21:00N 41°45' E 140°41'611.7
2018-May-11 20:30N 41°41' E 140°46'611.9
2018-May-11 20:00N 41°38' E 140°53'610.9
2018-May-11 19:30N 41°35' E 140°59'612.4
2018-May-11 19:00N 41°31' E 141°05'612.1
2018-May-11 18:30N 41°28' E 141°12'612.2
2018-May-11 18:00N 41°28' E 141°21'711.5
2018-May-11 17:24N 41°27' E 141°30'  
2018-May-08 07:29N 41°35' E 141°32'612.7
2018-May-08 07:00N 41°29' E 141°31'45 1.9
2018-May-07 07:17N 40°44' E 141°34'411.3
2018-May-07 06:57N 40°47' E 141°32'611.1
2018-May-07 06:25N 40°53' E 141°32'3411.6
2018-May-07 03:28N 41°27' E 141°30'812.8
2018-May-07 02:52N 41°30' E 141°21'513.7
2018-May-07 02:29N 41°32' E 141°14'713.9
2018-May-07 02:00N 41°35' E 141°06'713.6
2018-May-07 01:31N 41°38' E 140°58'612.2
2018-May-07 01:00N 41°41' E 140°51'612.3
2018-May-07 00:30N 41°43' E 140°43'510.8
2018-May-07 00:00N 41°48' E 140°40'1 1.7
2018-May-06 23:30N 41°48' E 140°39'0 0.0
2018-May-06 23:00N 41°48' E 140°39'0 0.0
2018-May-06 22:30N 41°48' E 140°39'0 0.0
2018-May-06 22:00N 41°48' E 140°39'0 0.0
2018-May-06 21:30N 41°48' E 140°39'0 0.0
2018-May-06 21:01N 41°48' E 140°39'0 0.0
2018-May-06 20:30N 41°48' E 140°39'0 0.0
2018-May-06 20:00N 41°48' E 140°39'0 0.0
2018-May-06 19:30N 41°48' E 140°39'0 0.0
2018-May-06 19:00N 41°48' E 140°39'1 1.2
2018-May-06 18:30N 41°48' E 140°39'3 6.1
2018-May-06 18:00N 41°47' E 140°43'0 0.1
2018-May-06 17:30N 41°47' E 140°43'0 0.0
2018-May-06 17:00N 41°47' E 140°43'0 0.0
2018-May-06 16:30N 41°47' E 140°43'0 0.0
2018-May-06 16:00N 41°47' E 140°43'0 0.0
2018-May-06 15:30N 41°47' E 140°43'0 0.0
2018-May-06 15:00N 41°47' E 140°43'0 0.0
2018-May-06 14:30N 41°47' E 140°43'0 0.0
2018-May-06 14:00N 41°47' E 140°43'0 0.0
2018-May-06 13:30N 41°47' E 140°43'0 0.0
2018-May-06 13:00N 41°47' E 140°43'0 0.0
2018-May-06 12:30N 41°47' E 140°43'0 0.0
2018-May-06 12:00N 41°47' E 140°43'0 0.0
2018-May-06 11:30N 41°47' E 140°43'0 0.0
2018-May-06 11:00N 41°47' E 140°43'0 0.0
2018-May-06 10:30N 41°47' E 140°43'0 0.0
2018-May-06 10:00N 41°47' E 140°43'0 0.0
2018-May-06 09:30N 41°47' E 140°43'0 0.0
2018-May-06 09:00N 41°47' E 140°43'0 0.0
2018-May-06 08:30N 41°47' E 140°43'0 0.0
2018-May-06 08:00N 41°47' E 140°43'0 0.0
2018-May-06 07:30N 41°47' E 140°43'0 0.0
2018-May-06 07:00N 41°47' E 140°43'0 0.0
2018-May-06 06:30N 41°47' E 140°43'0 0.0
2018-May-06 06:00N 41°47' E 140°43'0 0.0
2018-May-06 05:30N 41°47' E 140°43'0 0.0
2018-May-06 05:00N 41°47' E 140°43'0 0.0
2018-May-06 04:31N 41°47' E 140°43'0 0.0
2018-May-06 04:00N 41°47' E 140°43'0 0.0
2018-May-06 03:30N 41°47' E 140°43'0 0.0
2018-May-06 03:00N 41°47' E 140°43'0 0.0
2018-May-06 02:31N 41°47' E 140°43'0 0.0
2018-May-06 02:00N 41°47' E 140°43'2 3.2
2018-May-06 01:30N 41°48' E 140°41'510.5
2018-May-06 01:00N 41°43' E 140°45'612.4
2018-May-06 00:30N 41°41' E 140°53'611.6
2018-May-06 00:00N 41°38' E 140°60'611.4
2018-May-05 23:30N 41°35' E 141°06'611.6
2018-May-05 23:00N 41°33' E 141°13'710.9
2018-May-05 22:24N 41°30' E 141°21'  
Track history (hours):
 
Tides and Currents Weather Stations Pressure Air Temp Water Temp Dewpoint Dewpoint Depression Visibility Wind Speed Wind Dir Waves Ship Positions

Fujiiwa Maru

Last reported at 2018-May-15 14:11 UTC. Time now 2018-Jul-21 17:14 UTC.
Position N 41°25' E 141°24'.
Warning: this ship's position is months out of date.

Length 84 m; draft 5 m.

Type: Cargo ship. MMSI: 431200122.

Date/timePositionNaut miles runAvg speedWind from/ knotsBaromVisibWave heightAir tempDewpointWater temp
2018-May-15 14:11N 41°25' E 141°24'0 0.0
2018-May-15 13:55N 41°25' E 141°24'0 0.0
2018-May-15 13:29N 41°25' E 141°24'4 6.4
2018-May-15 12:50N 41°28' E 141°29'3 0.1
2018-May-14 10:45N 41°25' E 141°31'23 1.0
2018-May-13 12:43N 41°48' E 141°31'812.4
2018-May-13 12:02N 41°40' E 141°32'112.3
2018-May-13 11:58N 41°39' E 141°32'611.3
2018-May-13 11:28N 41°33' E 141°32'610.7
2018-May-13 10:52N 41°27' E 141°31'46 2.0
2018-May-12 11:55N 40°41' E 141°36'5211.6
2018-May-12 07:28N 41°31' E 141°19'614.0
2018-May-12 07:00N 41°34' E 141°11'714.6
2018-May-12 06:30N 41°37' E 141°02'714.5
2018-May-12 06:00N 41°40' E 140°54'612.7
2018-May-12 05:30N 41°42' E 140°46'510.5
2018-May-12 05:00N 41°46' E 140°41'3 5.2
2018-May-12 04:30N 41°48' E 140°43'0 0.0
2018-May-12 04:00N 41°48' E 140°43'0 0.0
2018-May-12 03:30N 41°48' E 140°43'0 0.0
2018-May-12 03:00N 41°48' E 140°43'0 0.0
2018-May-12 02:30N 41°48' E 140°43'0 0.0
2018-May-12 02:00N 41°48' E 140°43'0 0.0
2018-May-12 01:30N 41°48' E 140°43'0 0.0
2018-May-12 01:00N 41°48' E 140°43'0 0.0
2018-May-12 00:30N 41°48' E 140°43'0 0.0
2018-May-12 00:00N 41°48' E 140°43'0 0.0
2018-May-11 23:30N 41°48' E 140°43'0 0.0
2018-May-11 23:00N 41°48' E 140°43'0 0.0
2018-May-11 22:30N 41°48' E 140°43'0 0.0
2018-May-11 22:00N 41°48' E 140°43'0 0.0
2018-May-11 21:30N 41°48' E 140°43'3 6.0
2018-May-11 21:00N 41°45' E 140°41'611.7
2018-May-11 20:30N 41°41' E 140°46'611.9
2018-May-11 20:00N 41°38' E 140°53'610.9
2018-May-11 19:30N 41°35' E 140°59'612.4
2018-May-11 19:00N 41°31' E 141°05'612.1
2018-May-11 18:30N 41°28' E 141°12'612.2
2018-May-11 18:00N 41°28' E 141°21'711.5
2018-May-11 17:24N 41°27' E 141°30'  
2018-May-08 07:29N 41°35' E 141°32'612.7
2018-May-08 07:00N 41°29' E 141°31'45 1.9
2018-May-07 07:17N 40°44' E 141°34'411.3
2018-May-07 06:57N 40°47' E 141°32'611.1
2018-May-07 06:25N 40°53' E 141°32'3411.6
2018-May-07 03:28N 41°27' E 141°30'812.8
2018-May-07 02:52N 41°30' E 141°21'513.7
2018-May-07 02:29N 41°32' E 141°14'713.9
2018-May-07 02:00N 41°35' E 141°06'713.6
2018-May-07 01:31N 41°38' E 140°58'612.2
2018-May-07 01:00N 41°41' E 140°51'612.3
2018-May-07 00:30N 41°43' E 140°43'510.8
2018-May-07 00:00N 41°48' E 140°40'1 1.7
2018-May-06 23:30N 41°48' E 140°39'0 0.0
2018-May-06 23:00N 41°48' E 140°39'0 0.0
2018-May-06 22:30N 41°48' E 140°39'0 0.0
2018-May-06 22:00N 41°48' E 140°39'0 0.0
2018-May-06 21:30N 41°48' E 140°39'0 0.0
2018-May-06 21:01N 41°48' E 140°39'0 0.0
2018-May-06 20:30N 41°48' E 140°39'0 0.0
2018-May-06 20:00N 41°48' E 140°39'0 0.0
2018-May-06 19:30N 41°48' E 140°39'0 0.0
2018-May-06 19:00N 41°48' E 140°39'1 1.2
2018-May-06 18:30N 41°48' E 140°39'3 6.1
2018-May-06 18:00N 41°47' E 140°43'0 0.1
2018-May-06 17:30N 41°47' E 140°43'0 0.0
2018-May-06 17:00N 41°47' E 140°43'0 0.0
2018-May-06 16:30N 41°47' E 140°43'0 0.0
2018-May-06 16:00N 41°47' E 140°43'0 0.0
2018-May-06 15:30N 41°47' E 140°43'0 0.0
2018-May-06 15:00N 41°47' E 140°43'0 0.0
2018-May-06 14:30N 41°47' E 140°43'0 0.0
2018-May-06 14:00N 41°47' E 140°43'0 0.0
2018-May-06 13:30N 41°47' E 140°43'0 0.0
2018-May-06 13:00N 41°47' E 140°43'0 0.0
2018-May-06 12:30N 41°47' E 140°43'0 0.0
2018-May-06 12:00N 41°47' E 140°43'0 0.0
2018-May-06 11:30N 41°47' E 140°43'0 0.0
2018-May-06 11:00N 41°47' E 140°43'0 0.0
2018-May-06 10:30N 41°47' E 140°43'0 0.0
2018-May-06 10:00N 41°47' E 140°43'0 0.0
2018-May-06 09:30N 41°47' E 140°43'0 0.0
2018-May-06 09:00N 41°47' E 140°43'0 0.0
2018-May-06 08:30N 41°47' E 140°43'0 0.0
2018-May-06 08:00N 41°47' E 140°43'0 0.0
2018-May-06 07:30N 41°47' E 140°43'0 0.0
2018-May-06 07:00N 41°47' E 140°43'0 0.0
2018-May-06 06:30N 41°47' E 140°43'0 0.0
2018-May-06 06:00N 41°47' E 140°43'0 0.0
2018-May-06 05:30N 41°47' E 140°43'0 0.0
2018-May-06 05:00N 41°47' E 140°43'0 0.0
2018-May-06 04:31N 41°47' E 140°43'0 0.0
2018-May-06 04:00N 41°47' E 140°43'0 0.0
2018-May-06 03:30N 41°47' E 140°43'0 0.0
2018-May-06 03:00N 41°47' E 140°43'0 0.0
2018-May-06 02:31N 41°47' E 140°43'0 0.0
2018-May-06 02:00N 41°47' E 140°43'2 3.2
2018-May-06 01:30N 41°48' E 140°41'510.5
2018-May-06 01:00N 41°43' E 140°45'612.4
2018-May-06 00:30N 41°41' E 140°53'611.6
2018-May-06 00:00N 41°38' E 140°60'611.4
2018-May-05 23:30N 41°35' E 141°06'611.6
2018-May-05 23:00N 41°33' E 141°13'710.9
2018-May-05 22:24N 41°30' E 141°21'  

Dump ship's entire track history